Time;durP1;ratioP1;P1;durP2;ratioP2;P2;SDS_P1;SDS_P2;PMS_P1;PMS_P2;Temp;Humidity;BMP_temperature;BMP_pressure;BME280_temperature;BME280_humidity;BME280_pressure;Samples;Min_cycle;Max_cycle;Signal;HPM_P1;HPM_P2
2021/10/20 00:00:57;;;;;;;40.60;17.35;;;;;;;;;;4992483;28;20022;-89
2021/10/20 00:03:22;;;;;;;37.08;18.02;;;;;;;;;;4992252;28;20062;-89
2021/10/20 00:05:48;;;;;;;36.38;16.52;;;;;;;;;;4992547;28;20072;-90
2021/10/20 00:08:13;;;;;;;37.30;16.52;;;;;;;;;;4990564;28;20030;-89
2021/10/20 00:10:39;;;;;;;33.90;16.17;;;;;;;;;;4991253;28;20068;-90
2021/10/20 00:13:04;;;;;;;36.70;15.82;;;;;;;;;;4992102;28;20045;-90
2021/10/20 00:15:30;;;;;;;40.67;16.60;;;;;;;;;;4992094;28;20022;-88
2021/10/20 00:17:56;;;;;;;33.75;14.60;;;;;;;;;;4991849;28;20026;-89
2021/10/20 00:20:24;;;;;;;34.75;14.30;;;;;;;;;;4990836;28;20045;-91
2021/10/20 00:22:51;;;;;;;29.67;14.15;;;;;;;;;;4990858;28;20027;-90
2021/10/20 00:25:16;;;;;;;34.38;14.73;;;;;;;;;;4984009;28;20565;-88
2021/10/20 00:27:42;;;;;;;34.35;15.77;;;;;;;;;;4992053;28;20026;-89
2021/10/20 00:30:08;;;;;;;41.97;17.45;;;;;;;;;;4991908;28;20054;-90
2021/10/20 00:32:34;;;;;;;49.58;18.80;;;;;;;;;;4990684;28;20069;-90
2021/10/20 00:34:59;;;;;;;46.53;19.60;;;;;;;;;;4991809;28;20065;-90
2021/10/20 00:37:25;;;;;;;49.92;20.13;;;;;;;;;;4990525;28;20038;-89
2021/10/20 00:40:02;;;;;;;50.60;20.73;;;;;;;;;;4991750;28;20038;-89
2021/10/20 00:42:27;;;;;;;54.95;22.40;;;;;;;;;;4990454;28;20048;-90
2021/10/20 00:44:55;;;;;;;57.17;22.27;;;;;;;;;;4991672;28;20034;-89
2021/10/20 00:47:21;;;;;;;64.88;23.17;;;;;;;;;;4991416;28;20030;-89
2021/10/20 00:49:48;;;;;;;59.80;23.02;;;;;;;;;;5006803;28;20030;-88
2021/10/20 00:52:14;;;;;;;61.83;23.88;;;;;;;;;;4986539;28;20049;-90
2021/10/20 00:54:40;;;;;;;62.13;23.38;;;;;;;;;;4989821;28;20121;-89
2021/10/20 00:57:06;;;;;;;59.65;23.92;;;;;;;;;;4989673;28;20109;-90
2021/10/20 00:59:33;;;;;;;58.78;25.13;;;;;;;;;;4989971;28;20084;-89
2021/10/20 01:01:58;;;;;;;58.17;23.35;;;;;;;;;;4991092;28;20069;-89
2021/10/20 01:04:24;;;;;;;48.83;22.38;;;;;;;;;;4991495;28;20057;-91
2021/10/20 01:06:49;;;;;;;45.03;20.63;;;;;;;;;;4989493;28;20037;-89
2021/10/20 01:09:15;;;;;;;49.17;20.27;;;;;;;;;;4986755;28;20587;-90
2021/10/20 01:11:40;;;;;;;48.80;20.60;;;;;;;;;;4991534;28;20026;-90
2021/10/20 01:14:05;;;;;;;47.80;18.90;;;;;;;;;;4991961;28;20520;-90
2021/10/20 01:16:31;;;;;;;42.53;19.13;;;;;;;;;;4990990;28;20064;-90
2021/10/20 01:18:57;;;;;;;37.83;18.00;;;;;;;;;;4990062;28;20034;-90
2021/10/20 01:21:22;;;;;;;36.80;16.30;;;;;;;;;;4991345;28;20034;-91
2021/10/20 01:23:48;;;;;;;32.03;15.55;;;;;;;;;;4990510;28;20034;-91
2021/10/20 01:26:15;;;;;;;29.10;14.98;;;;;;;;;;4990821;28;20070;-90
2021/10/20 01:28:41;;;;;;;25.20;13.82;;;;;;;;;;4990170;28;20028;-90
2021/10/20 01:31:07;;;;;;;26.88;14.07;;;;;;;;;;4990051;28;20034;-89
2021/10/20 01:33:32;;;;;;;32.70;14.80;;;;;;;;;;4990178;28;20467;-91
2021/10/20 01:35:58;;;;;;;23.60;13.63;;;;;;;;;;4989573;28;20034;-91
2021/10/20 01:38:23;;;;;;;25.25;13.13;;;;;;;;;;4990014;28;20030;-91
2021/10/20 01:40:48;;;;;;;23.92;12.43;;;;;;;;;;4994692;28;20030;-91
2021/10/20 01:43:14;;;;;;;22.20;12.65;;;;;;;;;;4991817;28;20062;-92
2021/10/20 01:45:39;;;;;;;22.20;12.55;;;;;;;;;;4990974;28;20129;-90
2021/10/20 01:48:06;;;;;;;23.38;12.98;;;;;;;;;;4988918;28;20043;-89
2021/10/20 01:50:31;;;;;;;28.83;13.68;;;;;;;;;;4989450;28;20098;-90
2021/10/20 01:52:56;;;;;;;28.48;14.05;;;;;;;;;;4990103;28;20117;-89
2021/10/20 01:55:22;;;;;;;28.52;13.63;;;;;;;;;;4989579;28;20096;-90
2021/10/20 01:57:48;;;;;;;24.70;13.13;;;;;;;;;;4998178;28;20034;-91
2021/10/20 02:00:14;;;;;;;26.52;13.13;;;;;;;;;;4990538;28;20093;-89
2021/10/20 02:02:40;;;;;;;25.50;12.98;;;;;;;;;;4990311;28;20085;-90
2021/10/20 02:05:15;;;;;;;20.95;12.02;;;;;;;;;;4991532;28;20023;-89
2021/10/20 02:07:41;;;;;;;24.50;11.75;;;;;;;;;;4993189;28;20034;-89
2021/10/20 02:10:12;;;;;;;23.40;11.82;;;;;;;;;;4993067;28;20026;-90
2021/10/20 02:12:38;;;;;;;25.42;12.07;;;;;;;;;;4986198;28;20036;-90
2021/10/20 02:15:04;;;;;;;20.40;11.98;;;;;;;;;;4994632;28;20125;-90
2021/10/20 02:17:30;;;;;;;29.17;14.38;;;;;;;;;;4993017;28;20037;-89
2021/10/20 02:19:55;;;;;;;34.08;15.80;;;;;;;;;;4993846;28;20045;-89
2021/10/20 02:22:21;;;;;;;38.75;17.73;;;;;;;;;;4994217;28;20485;-89
2021/10/20 02:24:46;;;;;;;43.72;18.83;;;;;;;;;;4994163;28;20101;-88
2021/10/20 02:27:11;;;;;;;43.83;18.20;;;;;;;;;;4993077;28;20117;-91
2021/10/20 02:29:37;;;;;;;43.33;18.70;;;;;;;;;;4993078;28;20084;-89
2021/10/20 02:32:02;;;;;;;43.05;19.50;;;;;;;;;;4993667;28;20027;-90
2021/10/20 02:34:28;;;;;;;37.75;15.85;;;;;;;;;;4993769;28;20057;-90
2021/10/20 02:36:54;;;;;;;48.28;18.15;;;;;;;;;;4992561;28;20049;-91
2021/10/20 02:39:19;;;;;;;42.45;17.90;;;;;;;;;;4992270;28;20544;-91
2021/10/20 02:41:45;;;;;;;36.22;17.00;;;;;;;;;;4993899;28;20026;-89
2021/10/20 02:44:10;;;;;;;26.70;14.10;;;;;;;;;;4992830;28;20076;-90
2021/10/20 02:46:36;;;;;;;32.28;16.48;;;;;;;;;;4992864;28;20037;-89
2021/10/20 02:49:02;;;;;;;32.53;15.50;;;;;;;;;;4994006;28;20026;-91
2021/10/20 02:51:30;;;;;;;30.77;15.20;;;;;;;;;;4992545;28;20042;-90
2021/10/20 02:53:57;;;;;;;28.88;14.98;;;;;;;;;;4993601;28;20053;-90
2021/10/20 02:56:22;;;;;;;23.88;12.55;;;;;;;;;;4992094;28;20031;-92
2021/10/20 02:58:48;;;;;;;26.17;13.15;;;;;;;;;;4994140;28;20393;-92
2021/10/20 03:01:13;;;;;;;28.08;14.52;;;;;;;;;;4992590;28;20026;-90
2021/10/20 03:03:38;;;;;;;25.98;13.90;;;;;;;;;;4991593;28;20118;-91
2021/10/20 03:06:04;;;;;;;22.33;10.60;;;;;;;;;;4992654;28;20034;-90
2021/10/20 03:08:30;;;;;;;25.15;12.15;;;;;;;;;;4994024;28;20093;-90
2021/10/20 03:10:56;;;;;;;25.00;11.18;;;;;;;;;;4988586;28;20065;-91
2021/10/20 03:13:21;;;;;;;21.00;11.32;;;;;;;;;;4993310;28;20643;-89
2021/10/20 03:15:47;;;;;;;24.30;11.15;;;;;;;;;;4993002;28;20018;-90
2021/10/20 03:18:12;;;;;;;23.83;10.80;;;;;;;;;;4993820;28;20070;-91
2021/10/20 03:20:38;;;;;;;20.83;10.48;;;;;;;;;;4994079;28;20097;-91
2021/10/20 03:23:03;;;;;;;20.65;10.60;;;;;;;;;;5008814;28;20034;-91
2021/10/20 03:25:29;;;;;;;26.23;11.38;;;;;;;;;;4992790;28;20499;-90
2021/10/20 03:27:54;;;;;;;23.23;10.02;;;;;;;;;;4993927;28;20097;-90
2021/10/20 03:30:22;;;;;;;27.75;11.75;;;;;;;;;;4993308;28;20034;-91
2021/10/20 03:32:47;;;;;;;23.08;9.48;;;;;;;;;;4992271;28;20469;-89
2021/10/20 03:35:14;;;;;;;22.92;8.30;;;;;;;;;;4993064;28;20057;-90
2021/10/20 03:37:39;;;;;;;29.92;10.23;;;;;;;;;;4992218;28;20053;-90
2021/10/20 03:40:05;;;;;;;33.45;11.43;;;;;;;;;;4993892;28;20030;-90
2021/10/20 03:42:31;;;;;;;32.92;11.25;;;;;;;;;;4992124;28;20037;-91
2021/10/20 03:44:58;;;;;;;27.27;9.23;;;;;;;;;;4993486;28;20030;-92
2021/10/20 03:47:24;;;;;;;31.45;10.73;;;;;;;;;;4982357;28;20022;-90
2021/10/20 03:49:50;;;;;;;30.05;11.95;;;;;;;;;;4993763;28;20022;-92
2021/10/20 03:52:16;;;;;;;34.70;12.60;;;;;;;;;;4993271;28;20452;-89
2021/10/20 03:54:42;;;;;;;30.35;10.32;;;;;;;;;;4992625;28;20038;-90
2021/10/20 03:57:08;;;;;;;32.95;11.75;;;;;;;;;;4992009;28;20029;-92
2021/10/20 03:59:34;;;;;;;30.35;10.93;;;;;;;;;;4992290;28;20393;-89
2021/10/20 04:01:59;;;;;;;31.25;11.07;;;;;;;;;;4992773;28;20030;-91
2021/10/20 04:04:25;;;;;;;32.67;11.82;;;;;;;;;;4991874;28;20068;-89
2021/10/20 04:06:50;;;;;;;35.40;11.75;;;;;;;;;;4991887;28;20117;-90
2021/10/20 04:09:16;;;;;;;27.65;11.63;;;;;;;;;;4991446;28;20473;-89
2021/10/20 04:11:41;;;;;;;55.28;23.27;;;;;;;;;;4992864;28;20057;-91
2021/10/20 04:14:07;;;;;;;37.72;20.70;;;;;;;;;;4991641;28;20049;-92
2021/10/20 04:16:32;;;;;;;162.13;67.82;;;;;;;;;;4991574;28;20022;-90
2021/10/20 04:18:57;;;;;;;202.85;96.70;;;;;;;;;;4991093;28;20658;-90
2021/10/20 04:21:23;;;;;;;192.82;83.45;;;;;;;;;;4990849;28;20521;-90
2021/10/20 04:23:48;;;;;;;49.92;18.48;;;;;;;;;;4991644;28;20503;-89
2021/10/20 04:26:14;;;;;;;94.82;46.33;;;;;;;;;;4991430;28;20436;-91
2021/10/20 04:28:39;;;;;;;54.78;28.00;;;;;;;;;;4990227;28;20034;-90
2021/10/20 04:31:04;;;;;;;73.75;36.50;;;;;;;;;;4992594;28;20105;-91
2021/10/20 04:33:30;;;;;;;96.35;47.83;;;;;;;;;;4997857;28;20038;-91
2021/10/20 04:35:55;;;;;;;39.72;22.25;;;;;;;;;;4997794;28;20089;-90
2021/10/20 04:38:21;;;;;;;34.88;18.88;;;;;;;;;;4991872;28;20392;-90
2021/10/20 04:40:46;;;;;;;28.65;13.80;;;;;;;;;;4988524;28;20026;-91
2021/10/20 04:43:12;;;;;;;37.67;20.92;;;;;;;;;;4990610;28;20347;-90
2021/10/20 04:45:37;;;;;;;50.08;33.85;;;;;;;;;;4989928;28;20491;-90
2021/10/20 04:48:04;;;;;;;26.60;13.93;;;;;;;;;;4989705;28;20062;-90
2021/10/20 04:50:30;;;;;;;26.17;11.90;;;;;;;;;;4991082;28;20105;-91
2021/10/20 04:52:56;;;;;;;33.38;19.55;;;;;;;;;;4989041;28;20585;-91
2021/10/20 04:55:21;;;;;;;32.95;12.75;;;;;;;;;;4988900;28;20026;-91
2021/10/20 04:57:48;;;;;;;27.20;13.45;;;;;;;;;;4989655;28;20428;-90
2021/10/20 05:00:14;;;;;;;26.42;12.48;;;;;;;;;;4990540;28;20038;-91
2021/10/20 05:02:40;;;;;;;27.13;10.82;;;;;;;;;;4991192;28;20042;-88
2021/10/20 05:05:06;;;;;;;35.55;15.23;;;;;;;;;;4990462;28;20042;-90
2021/10/20 05:07:32;;;;;;;25.88;10.35;;;;;;;;;;4989681;28;20030;-90
2021/10/20 05:09:57;;;;;;;16.80;8.90;;;;;;;;;;4991853;28;20034;-90
2021/10/20 05:12:23;;;;;;;25.63;13.15;;;;;;;;;;4987840;28;20029;-91
2021/10/20 05:14:48;;;;;;;28.52;12.68;;;;;;;;;;4988142;28;20481;-90
2021/10/20 05:17:14;;;;;;;24.40;11.52;;;;;;;;;;4988344;28;20473;-89
2021/10/20 05:19:39;;;;;;;25.05;11.25;;;;;;;;;;4989134;28;20042;-90
2021/10/20 05:22:06;;;;;;;23.83;10.60;;;;;;;;;;4989296;28;20026;-90
2021/10/20 05:24:33;;;;;;;30.20;13.18;;;;;;;;;;4989210;28;20436;-90
2021/10/20 05:26:58;;;;;;;31.60;14.30;;;;;;;;;;4989506;28;20050;-89
2021/10/20 05:29:23;;;;;;;34.72;14.50;;;;;;;;;;4990333;28;20104;-91
2021/10/20 05:31:49;;;;;;;35.50;13.30;;;;;;;;;;4989065;28;20185;-91
2021/10/20 05:34:14;;;;;;;28.38;13.48;;;;;;;;;;4993352;28;20493;-90
2021/10/20 05:36:40;;;;;;;35.63;13.77;;;;;;;;;;4990453;28;20042;-90
2021/10/20 05:39:06;;;;;;;36.58;13.27;;;;;;;;;;4988807;28;20113;-90
2021/10/20 05:41:32;;;;;;;43.15;18.60;;;;;;;;;;4989881;28;20485;-91
2021/10/20 05:43:57;;;;;;;38.40;18.33;;;;;;;;;;4990233;28;20085;-90
2021/10/20 05:46:22;;;;;;;44.33;18.50;;;;;;;;;;4988838;28;20093;-90
2021/10/20 05:48:48;;;;;;;51.20;23.35;;;;;;;;;;4988885;28;20030;-91
2021/10/20 05:51:13;;;;;;;38.60;15.98;;;;;;;;;;4987348;28;20018;-91
2021/10/20 05:53:38;;;;;;;40.03;19.63;;;;;;;;;;4987348;28;20077;-90
2021/10/20 05:56:06;;;;;;;33.17;14.07;;;;;;;;;;4990474;28;20057;-90
2021/10/20 05:58:31;;;;;;;38.67;16.73;;;;;;;;;;4992600;28;20022;-90
2021/10/20 06:00:57;;;;;;;42.53;19.83;;;;;;;;;;4988209;28;20392;-88
2021/10/20 06:03:22;;;;;;;37.03;13.25;;;;;;;;;;4986759;28;20022;-88
2021/10/20 06:05:48;;;;;;;34.30;14.13;;;;;;;;;;4984017;28;20065;-90
2021/10/20 06:08:13;;;;;;;44.10;14.57;;;;;;;;;;4987918;28;20031;-89
2021/10/20 06:10:39;;;;;;;47.38;16.75;;;;;;;;;;4980045;28;20473;-89
2021/10/20 06:13:04;;;;;;;45.60;15.35;;;;;;;;;;4985499;28;20032;-88
2021/10/20 06:15:32;;;;;;;38.00;14.15;;;;;;;;;;4989448;28;20027;-89
2021/10/20 06:17:58;;;;;;;37.53;14.02;;;;;;;;;;4988467;28;20033;-90
2021/10/20 06:20:23;;;;;;;44.45;16.52;;;;;;;;;;5005393;28;20026;-92
2021/10/20 06:22:49;;;;;;;32.28;13.80;;;;;;;;;;4978368;28;20045;-93
2021/10/20 06:25:14;;;;;;;35.63;13.23;;;;;;;;;;4979621;28;20018;-91
2021/10/20 06:27:41;;;;;;;40.03;13.98;;;;;;;;;;4992864;28;20031;-94
2021/10/20 06:30:06;;;;;;;41.60;14.93;;;;;;;;;;4988463;28;20033;-93
2021/10/20 06:32:34;;;;;;;37.30;14.63;;;;;;;;;;4994259;28;20468;-91
2021/10/20 06:35:00;;;;;;;38.25;13.85;;;;;;;;;;4991800;28;20120;-94
2021/10/20 06:37:27;;;;;;;35.25;14.13;;;;;;;;;;4976026;28;20055;-93
2021/10/20 06:39:53;;;;;;;34.22;14.10;;;;;;;;;;4991054;28;20441;-93
2021/10/20 06:42:18;;;;;;;35.50;15.43;;;;;;;;;;4993542;28;20030;-92
2021/10/20 06:44:44;;;;;;;35.45;12.98;;;;;;;;;;4992279;28;20061;-94
2021/10/20 06:47:09;;;;;;;31.38;13.07;;;;;;;;;;4974569;28;20458;-92
2021/10/20 06:49:34;;;;;;;30.67;13.13;;;;;;;;;;4986264;28;20049;-93
2021/10/20 06:52:00;;;;;;;30.90;11.13;;;;;;;;;;4995924;28;20034;-92
2021/10/20 06:54:25;;;;;;;27.95;12.35;;;;;;;;;;4995700;28;20030;-92
2021/10/20 06:56:52;;;;;;;30.52;11.40;;;;;;;;;;4999905;28;20050;-91
2021/10/20 06:59:18;;;;;;;31.30;11.85;;;;;;;;;;4995866;28;20061;-92
2021/10/20 07:01:44;;;;;;;24.48;10.38;;;;;;;;;;4990475;28;20473;-92
2021/10/20 07:04:13;;;;;;;21.60;10.23;;;;;;;;;;4996624;28;20365;-94
2021/10/20 07:06:39;;;;;;;18.92;7.97;;;;;;;;;;4982809;28;20473;-93
2021/10/20 07:09:06;;;;;;;25.17;9.65;;;;;;;;;;4992418;28;20031;-94
2021/10/20 07:11:31;;;;;;;23.63;11.98;;;;;;;;;;4997982;28;20056;-92
2021/10/20 07:13:57;;;;;;;23.55;11.13;;;;;;;;;;4998286;28;20039;-92
2021/10/20 07:16:24;;;;;;;19.70;8.80;;;;;;;;;;4996636;28;20038;-94
2021/10/20 07:18:50;;;;;;;19.70;8.10;;;;;;;;;;4981754;28;20030;-93
2021/10/20 07:21:16;;;;;;;15.38;7.22;;;;;;;;;;4998093;28;20496;-93
2021/10/20 07:23:41;;;;;;;17.00;6.50;;;;;;;;;;4998280;28;20052;-95
2021/10/20 07:26:07;;;;;;;16.75;7.70;;;;;;;;;;4998830;28;20062;-93
2021/10/20 07:28:32;;;;;;;16.75;6.95;;;;;;;;;;4998365;28;20034;-93
2021/10/20 07:30:58;;;;;;;15.02;7.50;;;;;;;;;;4996916;28;20046;-93
2021/10/20 07:33:23;;;;;;;18.23;7.80;;;;;;;;;;4997175;28;20041;-93
2021/10/20 07:35:49;;;;;;;21.00;9.38;;;;;;;;;;4997259;28;20453;-94
2021/10/20 07:38:14;;;;;;;16.92;7.88;;;;;;;;;;4995863;28;20042;-90
2021/10/20 07:40:39;;;;;;;17.20;7.47;;;;;;;;;;4997033;28;20034;-93
2021/10/20 07:43:05;;;;;;;18.02;8.32;;;;;;;;;;4997726;28;20104;-92
2021/10/20 07:45:30;;;;;;;16.25;7.75;;;;;;;;;;4997473;28;20027;-92
2021/10/20 07:47:56;;;;;;;16.58;7.43;;;;;;;;;;4993034;28;20066;-91
2021/10/20 07:50:22;;;;;;;24.20;8.07;;;;;;;;;;4991529;28;20520;-89
2021/10/20 07:52:49;;;;;;;20.13;8.98;;;;;;;;;;4992127;28;20490;-88
2021/10/20 07:55:20;;;;;;;20.52;9.07;;;;;;;;;;4983096;28;20033;-89
2021/10/20 07:57:46;;;;;;;24.30;9.95;;;;;;;;;;4982116;28;20042;-90
2021/10/20 08:00:12;;;;;;;19.10;8.75;;;;;;;;;;4976781;28;20114;-90
2021/10/20 08:02:38;;;;;;;23.50;9.27;;;;;;;;;;4972452;28;20117;-90
2021/10/20 08:05:03;;;;;;;26.73;10.15;;;;;;;;;;4971669;28;20095;-90
2021/10/20 08:07:29;;;;;;;29.45;9.98;;;;;;;;;;4983111;28;20031;-90
2021/10/20 08:09:55;;;;;;;22.73;9.43;;;;;;;;;;4990621;28;20072;-89
2021/10/20 08:12:21;;;;;;;25.73;10.02;;;;;;;;;;4983862;28;20073;-89
2021/10/20 08:14:55;;;;;;;35.63;12.00;;;;;;;;;;4972323;28;20515;-89
2021/10/20 08:17:21;;;;;;;31.65;12.55;;;;;;;;;;4987358;28;20031;-89
2021/10/20 08:19:46;;;;;;;33.35;12.65;;;;;;;;;;4975028;28;20023;-90
2021/10/20 08:22:12;;;;;;;32.60;11.25;;;;;;;;;;5005337;28;20039;-90
2021/10/20 08:24:37;;;;;;;31.00;12.63;;;;;;;;;;4992240;28;20023;-92
2021/10/20 08:27:03;;;;;;;34.22;12.20;;;;;;;;;;4992784;28;20023;-91
2021/10/20 08:29:29;;;;;;;29.10;10.52;;;;;;;;;;4985788;28;20034;-89
2021/10/20 08:31:55;;;;;;;25.25;10.20;;;;;;;;;;4993314;28;20018;-90
2021/10/20 08:34:22;;;;;;;27.50;11.23;;;;;;;;;;4984741;28;20046;-91
2021/10/20 08:36:48;;;;;;;31.23;12.68;;;;;;;;;;4990018;28;20093;-89
2021/10/20 08:39:15;;;;;;;34.70;13.02;;;;;;;;;;5006476;28;20038;-91
2021/10/20 08:41:40;;;;;;;43.47;14.98;;;;;;;;;;4990617;28;20060;-90
2021/10/20 08:44:09;;;;;;;43.67;16.13;;;;;;;;;;4985691;28;20461;-90
2021/10/20 08:46:34;;;;;;;36.15;13.98;;;;;;;;;;4987326;28;20061;-91
2021/10/20 08:49:02;;;;;;;36.13;14.52;;;;;;;;;;4990604;28;20054;-88
2021/10/20 08:51:28;;;;;;;30.70;12.18;;;;;;;;;;4991552;28;20109;-91
2021/10/20 08:53:56;;;;;;;36.75;14.38;;;;;;;;;;4991303;28;20113;-90
2021/10/20 08:56:21;;;;;;;40.03;15.27;;;;;;;;;;4995542;28;20025;-90
2021/10/20 08:58:47;;;;;;;38.22;15.25;;;;;;;;;;4988206;28;20038;-90
2021/10/20 09:01:12;;;;;;;40.53;15.05;;;;;;;;;;4990810;28;20101;-90
2021/10/20 09:03:37;;;;;;;46.45;18.25;;;;;;;;;;5001798;28;20026;-90
2021/10/20 09:06:03;;;;;;;43.10;16.67;;;;;;;;;;4988261;28;20034;-92
2021/10/20 09:08:39;;;;;;;53.53;19.73;;;;;;;;;;4985592;28;20034;-90
2021/10/20 09:11:34;;;;;;;37.13;16.23;;;;;;;;;;4983634;28;20039;-89
2021/10/20 09:14:00;;;;;;;;;;;;;;;;;;4987868;28;20480;-90
2021/10/20 09:16:26;;;;;;;49.75;17.98;;;;;;;;;;4990383;28;19921;-90
2021/10/20 09:18:52;;;;;;;39.85;17.17;;;;;;;;;;4988343;28;20023;-90
2021/10/20 09:21:18;;;;;;;41.42;16.80;;;;;;;;;;4983207;28;20077;-91
2021/10/20 09:23:43;;;;;;;37.47;18.10;;;;;;;;;;4984518;28;20093;-90
2021/10/20 09:26:09;;;;;;;44.83;18.77;;;;;;;;;;4971230;28;20023;-90
2021/10/20 09:28:38;;;;;;;42.83;17.70;;;;;;;;;;4977702;28;20715;-91
2021/10/20 09:31:08;;;;;;;35.75;16.08;;;;;;;;;;4990324;28;20125;-91
2021/10/20 09:33:38;;;;;;;31.92;14.57;;;;;;;;;;4995883;28;20018;-91
2021/10/20 09:36:09;;;;;;;31.70;15.68;;;;;;;;;;4988537;28;20030;-92
2021/10/20 09:38:49;;;;;;;35.10;15.45;;;;;;;;;;4989366;28;20022;-89
2021/10/20 09:41:16;;;;;;;42.88;18.02;;;;;;;;;;5000320;28;20037;-92
2021/10/20 09:43:52;;;;;;;44.08;18.60;;;;;;;;;;5010032;28;20491;-91
2021/10/20 09:46:36;;;;;;;40.53;17.98;;;;;;;;;;4973894;28;20023;-91
2021/10/20 09:49:22;;;;;;;;;;;;;;;;;;4988926;28;20026;-90
2021/10/20 09:51:49;;;;;;;48.20;19.33;;;;;;;;;;4983592;28;19925;-91
2021/10/20 09:54:21;;;;;;;55.22;21.30;;;;;;;;;;4978065;28;20027;-90
2021/10/20 09:56:58;;;;;;;58.67;22.27;;;;;;;;;;4993523;28;20508;-91
2021/10/20 09:59:28;;;;;;;43.90;19.83;;;;;;;;;;4976222;28;20030;-90
2021/10/20 10:01:54;;;;;;;58.55;23.55;;;;;;;;;;4990501;28;20160;-90
2021/10/20 10:04:20;;;;;;;52.63;22.52;;;;;;;;;;4989592;28;20038;-90
2021/10/20 10:06:47;;;;;;;67.65;25.80;;;;;;;;;;4990029;28;20390;-90
2021/10/20 10:09:14;;;;;;;54.15;21.20;;;;;;;;;;4991738;28;20030;-93
2021/10/20 10:11:46;;;;;;;50.38;21.80;;;;;;;;;;4990897;28;20057;-91
2021/10/20 10:14:14;;;;;;;57.50;22.88;;;;;;;;;;4991617;28;20026;-91
2021/10/20 10:16:42;;;;;;;47.85;20.40;;;;;;;;;;4984466;28;20031;-91
2021/10/20 10:19:08;;;;;;;53.00;21.65;;;;;;;;;;4983887;28;20489;-92
2021/10/20 10:21:40;;;;;;;42.95;20.00;;;;;;;;;;4985728;28;20138;-91
2021/10/20 10:24:12;;;;;;;55.33;23.13;;;;;;;;;;4978519;28;20481;-90
2021/10/20 10:27:04;;;;;;;52.85;22.20;;;;;;;;;;5010688;28;20040;-92
2021/10/20 10:29:31;;;;;;;53.97;22.77;;;;;;;;;;4996245;28;20552;-91
2021/10/20 10:32:05;;;;;;;60.67;23.05;;;;;;;;;;4991668;28;20065;-90
2021/10/20 10:34:34;;;;;;;;;;;;;;;;;;4991491;28;20029;-90
2021/10/20 10:37:00;;;;;;;45.13;19.13;;;;;;;;;;4975205;28;19918;-89
2021/10/20 10:39:30;;;;;;;47.42;21.15;;;;;;;;;;4975081;28;20047;-91
2021/10/20 10:42:01;;;;;;;52.38;23.73;;;;;;;;;;4975348;28;20433;-91
2021/10/20 10:44:50;;;;;;;56.38;22.38;;;;;;;;;;4986510;28;20065;-91
2021/10/20 10:47:26;;;;;;;66.80;24.10;;;;;;;;;;4977985;28;20034;-91
2021/10/20 10:49:57;;;;;;;54.58;22.10;;;;;;;;;;4996315;28;20026;-95
2021/10/20 10:52:28;;;;;;;50.63;23.75;;;;;;;;;;4985862;28;20481;-90
2021/10/20 10:55:14;;;;;;;52.72;23.50;;;;;;;;;;4993230;28;20611;-90
2021/10/20 10:57:58;;;;;;;41.25;16.88;;;;;;;;;;4996119;28;20026;-90
2021/10/20 11:00:25;;;;;;;49.92;22.23;;;;;;;;;;5014322;28;20030;-89
2021/10/20 11:03:10;;;;;;;37.10;18.02;;;;;;;;;;5013165;28;20054;-89
2021/10/20 11:05:36;;;;;;;31.52;15.93;;;;;;;;;;4999203;28;20045;-89
2021/10/20 11:08:10;;;;;;;24.85;12.90;;;;;;;;;;4994671;28;20101;-91
2021/10/20 11:10:38;;;;;;;30.60;15.45;;;;;;;;;;4993614;28;20023;-89
2021/10/20 11:13:05;;;;;;;35.65;17.25;;;;;;;;;;4992617;28;20074;-88
2021/10/20 11:15:32;;;;;;;33.55;16.27;;;;;;;;;;4986609;28;20050;-90
2021/10/20 11:17:59;;;;;;;47.47;20.20;;;;;;;;;;4982674;28;20027;-91
2021/10/20 11:20:28;;;;;;;48.03;20.48;;;;;;;;;;5007411;28;20109;-90
2021/10/20 11:22:56;;;;;;;71.50;26.83;;;;;;;;;;5004702;28;20030;-90
2021/10/20 11:25:22;;;;;;;51.42;21.77;;;;;;;;;;5004320;28;20116;-90
2021/10/20 11:27:50;;;;;;;51.97;21.67;;;;;;;;;;4986844;28;20508;-91
2021/10/20 11:30:18;;;;;;;51.45;20.50;;;;;;;;;;4974198;28;20493;-89
2021/10/20 11:32:46;;;;;;;50.33;22.13;;;;;;;;;;4973562;28;20030;-91
2021/10/20 11:35:23;;;;;;;52.20;22.77;;;;;;;;;;4974471;28;20022;-90
2021/10/20 11:37:53;;;;;;;37.88;17.98;;;;;;;;;;4976412;28;20046;-89
2021/10/20 11:40:19;;;;;;;43.90;19.75;;;;;;;;;;4993103;28;20110;-90
2021/10/20 11:42:44;;;;;;;34.45;18.40;;;;;;;;;;4992570;28;20121;-91
2021/10/20 11:45:10;;;;;;;30.42;14.77;;;;;;;;;;4991378;28;20030;-89
2021/10/20 11:47:40;;;;;;;41.40;18.55;;;;;;;;;;4973774;28;20095;-90
2021/10/20 11:50:10;;;;;;;41.63;18.55;;;;;;;;;;4973931;28;20034;-89
2021/10/20 11:52:35;;;;;;;43.13;20.75;;;;;;;;;;4991512;28;20083;-91
2021/10/20 11:55:02;;;;;;;46.25;17.88;;;;;;;;;;4980655;28;20533;-91
2021/10/20 11:57:28;;;;;;;50.42;19.65;;;;;;;;;;4984170;28;20481;-90
2021/10/20 11:59:55;;;;;;;46.63;18.98;;;;;;;;;;4982678;28;20031;-92
2021/10/20 12:02:20;;;;;;;23.40;11.55;;;;;;;;;;4978159;28;20035;-91
2021/10/20 12:04:48;;;;;;;36.50;18.25;;;;;;;;;;4981745;28;20030;-91
2021/10/20 12:07:16;;;;;;;36.85;17.65;;;;;;;;;;4991639;28;20497;-90
2021/10/20 12:09:45;;;;;;;32.63;16.88;;;;;;;;;;4992192;28;20026;-92
2021/10/20 12:12:11;;;;;;;23.85;13.23;;;;;;;;;;4979883;28;20034;-90
2021/10/20 12:14:41;;;;;;;31.63;15.38;;;;;;;;;;4989484;28;20034;-92
2021/10/20 12:17:07;;;;;;;31.33;16.05;;;;;;;;;;4993234;28;20030;-92
2021/10/20 12:19:36;;;;;;;34.08;17.00;;;;;;;;;;4984145;28;20027;-91
2021/10/20 12:22:04;;;;;;;33.85;15.65;;;;;;;;;;4980300;28;20081;-92
2021/10/20 12:24:51;;;;;;;42.83;19.35;;;;;;;;;;4987720;28;20089;-92
2021/10/20 12:27:19;;;;;;;35.72;16.10;;;;;;;;;;4975141;28;20038;-91
2021/10/20 12:29:48;;;;;;;27.85;14.48;;;;;;;;;;4983906;28;20034;-90
2021/10/20 12:32:19;;;;;;;38.80;16.90;;;;;;;;;;5009404;28;20026;-92
2021/10/20 12:34:52;;;;;;;41.72;17.40;;;;;;;;;;4992884;28;20031;-90
2021/10/20 12:37:18;;;;;;;;;;;;;;;;;;5009969;28;20053;-91
2021/10/20 12:39:48;;;;;;;20.23;10.48;;;;;;;;;;4986837;28;19918;-92
2021/10/20 12:42:14;;;;;;;28.67;14.02;;;;;;;;;;4992615;28;20390;-93
2021/10/20 12:44:40;;;;;;;30.25;15.23;;;;;;;;;;4981738;28;20034;-91
2021/10/20 12:47:05;;;;;;;35.75;16.98;;;;;;;;;;4974168;28;20470;-92
2021/10/20 12:49:35;;;;;;;31.83;15.43;;;;;;;;;;4989465;28;20094;-91
2021/10/20 12:52:04;;;;;;;31.90;16.10;;;;;;;;;;4987003;28;20030;-90
2021/10/20 12:54:32;;;;;;;33.25;16.63;;;;;;;;;;4985981;28;20062;-90
2021/10/20 12:56:58;;;;;;;25.65;12.60;;;;;;;;;;4993176;28;20026;-92
2021/10/20 12:59:27;;;;;;;31.10;16.27;;;;;;;;;;4976967;28;20026;-92
2021/10/20 13:01:52;;;;;;;32.60;16.13;;;;;;;;;;4989511;28;20026;-92
2021/10/20 13:04:17;;;;;;;34.97;17.58;;;;;;;;;;4989100;28;20125;-91
2021/10/20 13:06:43;;;;;;;28.13;14.65;;;;;;;;;;4991071;28;20397;-90
2021/10/20 13:09:09;;;;;;;33.40;16.10;;;;;;;;;;4978882;28;20022;-90
2021/10/20 13:11:35;;;;;;;33.75;15.57;;;;;;;;;;4990063;28;20053;-91
2021/10/20 13:14:01;;;;;;;18.90;9.50;;;;;;;;;;4982525;28;20022;-91
2021/10/20 13:16:27;;;;;;;26.02;13.07;;;;;;;;;;4988855;28;20026;-91
2021/10/20 13:18:52;;;;;;;31.17;14.75;;;;;;;;;;4989099;28;20027;-92
2021/10/20 13:21:18;;;;;;;34.08;17.92;;;;;;;;;;4992189;28;20574;-90
2021/10/20 13:23:45;;;;;;;28.13;14.40;;;;;;;;;;4975609;28;20039;-91
2021/10/20 13:26:11;;;;;;;27.27;13.15;;;;;;;;;;4989725;28;20031;-90
2021/10/20 13:28:37;;;;;;;29.33;13.73;;;;;;;;;;4990210;28;20049;-89
2021/10/20 13:31:02;;;;;;;29.45;14.15;;;;;;;;;;4990222;28;20031;-91
2021/10/20 13:33:28;;;;;;;25.50;12.38;;;;;;;;;;4997555;28;20069;-91
2021/10/20 13:35:54;;;;;;;29.10;15.68;;;;;;;;;;4996991;28;20035;-90
2021/10/20 13:38:22;;;;;;;27.67;12.30;;;;;;;;;;4993443;28;20076;-92
2021/10/20 13:40:49;;;;;;;22.08;10.35;;;;;;;;;;5010726;28;20030;-92
2021/10/20 13:43:16;;;;;;;22.23;10.57;;;;;;;;;;4993957;28;20088;-93
2021/10/20 13:45:42;;;;;;;24.55;14.48;;;;;;;;;;4993826;28;20030;-95
2021/10/20 13:48:08;;;;;;;30.10;13.90;;;;;;;;;;4984816;28;20117;-93
2021/10/20 13:50:35;;;;;;;26.80;12.50;;;;;;;;;;4993438;28;20034;-93
2021/10/20 13:53:00;;;;;;;26.77;13.50;;;;;;;;;;4993803;28;20125;-94
2021/10/20 13:55:32;;;;;;;24.77;11.65;;;;;;;;;;4996773;28;20053;-92
2021/10/20 13:57:59;;;;;;;23.48;13.05;;;;;;;;;;4992675;28;20081;-92
2021/10/20 14:00:26;;;;;;;29.35;13.65;;;;;;;;;;4984973;28;20385;-89
2021/10/20 14:02:51;;;;;;;24.08;12.30;;;;;;;;;;4994655;28;20242;-89
2021/10/20 14:05:17;;;;;;;32.80;13.80;;;;;;;;;;4995807;28;20592;-90
2021/10/20 14:07:43;;;;;;;22.65;11.27;;;;;;;;;;5002420;28;20363;-91
2021/10/20 14:10:11;;;;;;;22.95;10.30;;;;;;;;;;4986418;28;20504;-90
2021/10/20 14:12:38;;;;;;;29.73;14.38;;;;;;;;;;4996726;28;20065;-90
2021/10/20 14:15:13;;;;;;;25.98;12.18;;;;;;;;;;4977397;28;20039;-90
2021/10/20 14:17:39;;;;;;;27.40;11.77;;;;;;;;;;4985233;28;20054;-91